sensor_id;sensor_type;location;lat;lon;timestamp;P1;durP1;ratioP1;P2;durP2;ratioP2
45940;SDS011;31858;46.008;8.978;2023-11-18T00:07:19;0.10;;;0.10;;
45940;SDS011;31858;46.008;8.978;2023-11-18T00:17:22;0.10;;;0.10;;
45940;SDS011;31858;46.008;8.978;2023-11-18T00:27:24;0.25;;;0.10;;
45940;SDS011;31858;46.008;8.978;2023-11-18T00:37:27;0.30;;;0.08;;
45940;SDS011;31858;46.008;8.978;2023-11-18T00:47:28;0.10;;;0.10;;
45940;SDS011;31858;46.008;8.978;2023-11-18T00:57:31;0.10;;;0.10;;
45940;SDS011;31858;46.008;8.978;2023-11-18T01:07:33;0.10;;;0.10;;
45940;SDS011;31858;46.008;8.978;2023-11-18T01:17:36;0.00;;;0.00;;
45940;SDS011;31858;46.008;8.978;2023-11-18T01:27:37;0.10;;;0.10;;
45940;SDS011;31858;46.008;8.978;2023-11-18T01:37:41;0.20;;;0.20;;
45940;SDS011;31858;46.008;8.978;2023-11-18T01:47:44;0.20;;;0.20;;
45940;SDS011;31858;46.008;8.978;2023-11-18T01:57:49;0.20;;;0.10;;
45940;SDS011;31858;46.008;8.978;2023-11-18T02:07:51;0.05;;;0.05;;
45940;SDS011;31858;46.008;8.978;2023-11-18T02:17:54;0.00;;;0.00;;
45940;SDS011;31858;46.008;8.978;2023-11-18T02:28:00;0.10;;;0.10;;
45940;SDS011;31858;46.008;8.978;2023-11-18T02:38:02;0.20;;;0.10;;
45940;SDS011;31858;46.008;8.978;2023-11-18T02:48:08;0.10;;;0.10;;
45940;SDS011;31858;46.008;8.978;2023-11-18T02:58:10;0.98;;;0.85;;
45940;SDS011;31858;46.008;8.978;2023-11-18T03:08:13;0.10;;;0.10;;
45940;SDS011;31858;46.008;8.978;2023-11-18T03:18:15;1.60;;;0.20;;
45940;SDS011;31858;46.008;8.978;2023-11-18T03:28:18;0.10;;;0.10;;
45940;SDS011;31858;46.008;8.978;2023-11-18T03:38:19;0.10;;;0.10;;
45940;SDS011;31858;46.008;8.978;2023-11-18T03:48:22;0.05;;;0.05;;
45940;SDS011;31858;46.008;8.978;2023-11-18T03:58:25;0.00;;;0.00;;
45940;SDS011;31858;46.008;8.978;2023-11-18T04:08:28;0.10;;;0.10;;
45940;SDS011;31858;46.008;8.978;2023-11-18T04:18:29;0.10;;;0.10;;
45940;SDS011;31858;46.008;8.978;2023-11-18T04:28:32;0.10;;;0.10;;
45940;SDS011;31858;46.008;8.978;2023-11-18T04:38:34;0.28;;;0.25;;
45940;SDS011;31858;46.008;8.978;2023-11-18T04:48:37;0.20;;;0.10;;
45940;SDS011;31858;46.008;8.978;2023-11-18T04:58:39;1.25;;;0.20;;
45940;SDS011;31858;46.008;8.978;2023-11-18T05:08:42;0.20;;;0.20;;
45940;SDS011;31858;46.008;8.978;2023-11-18T05:18:45;0.10;;;0.10;;
45940;SDS011;31858;46.008;8.978;2023-11-18T05:28:47;0.10;;;0.10;;
45940;SDS011;31858;46.008;8.978;2023-11-18T05:38:50;0.20;;;0.08;;
45940;SDS011;31858;46.008;8.978;2023-11-18T05:48:53;0.10;;;0.10;;
45940;SDS011;31858;46.008;8.978;2023-11-18T05:58:54;0.10;;;0.10;;
45940;SDS011;31858;46.008;8.978;2023-11-18T06:08:57;0.20;;;0.20;;
45940;SDS011;31858;46.008;8.978;2023-11-18T06:19:05;0.35;;;0.13;;
45940;SDS011;31858;46.008;8.978;2023-11-18T06:29:08;0.25;;;0.25;;
45940;SDS011;31858;46.008;8.978;2023-11-18T06:39:10;0.75;;;0.75;;
45940;SDS011;31858;46.008;8.978;2023-11-18T06:49:14;0.68;;;0.32;;
45940;SDS011;31858;46.008;8.978;2023-11-18T06:59:16;0.88;;;0.32;;
45940;SDS011;31858;46.008;8.978;2023-11-18T07:09:20;0.20;;;0.20;;
45940;SDS011;31858;46.008;8.978;2023-11-18T07:19:21;0.20;;;0.20;;
45940;SDS011;31858;46.008;8.978;2023-11-18T07:29:24;0.20;;;0.20;;
45940;SDS011;31858;46.008;8.978;2023-11-18T07:39:27;0.13;;;0.13;;
45940;SDS011;31858;46.008;8.978;2023-11-18T07:49:45;0.10;;;0.10;;
45940;SDS011;31858;46.008;8.978;2023-11-18T07:59:46;7.07;;;0.57;;
45940;SDS011;31858;46.008;8.978;2023-11-18T08:09:49;5.22;;;1.02;;
45940;SDS011;31858;46.008;8.978;2023-11-18T08:19:51;0.22;;;0.20;;
45940;SDS011;31858;46.008;8.978;2023-11-18T08:29:54;1.70;;;0.73;;
45940;SDS011;31858;46.008;8.978;2023-11-18T08:39:55;1.27;;;0.35;;
45940;SDS011;31858;46.008;8.978;2023-11-18T08:49:58;0.10;;;0.10;;
45940;SDS011;31858;46.008;8.978;2023-11-18T09:00:12;1.85;;;0.80;;
45940;SDS011;31858;46.008;8.978;2023-11-18T09:10:36;4.40;;;1.58;;
45940;SDS011;31858;46.008;8.978;2023-11-18T09:20:38;1.67;;;0.70;;
45940;SDS011;31858;46.008;8.978;2023-11-18T09:30:41;7.63;;;0.50;;
45940;SDS011;31858;46.008;8.978;2023-11-18T09:40:50;1.10;;;0.50;;
45940;SDS011;31858;46.008;8.978;2023-11-18T09:50:55;0.50;;;0.50;;
45940;SDS011;31858;46.008;8.978;2023-11-18T10:01:02;0.50;;;0.30;;
45940;SDS011;31858;46.008;8.978;2023-11-18T10:11:06;0.73;;;0.40;;
45940;SDS011;31858;46.008;8.978;2023-11-18T10:21:09;0.35;;;0.20;;
45940;SDS011;31858;46.008;8.978;2023-11-18T10:31:13;0.57;;;0.57;;
45940;SDS011;31858;46.008;8.978;2023-11-18T10:41:20;0.60;;;0.60;;
45940;SDS011;31858;46.008;8.978;2023-11-18T10:51:24;0.63;;;0.63;;
45940;SDS011;31858;46.008;8.978;2023-11-18T11:01:31;1.02;;;0.50;;
45940;SDS011;31858;46.008;8.978;2023-11-18T11:11:35;0.40;;;0.40;;
45940;SDS011;31858;46.008;8.978;2023-11-18T11:21:46;0.50;;;0.50;;
45940;SDS011;31858;46.008;8.978;2023-11-18T11:32:01;0.45;;;0.38;;
45940;SDS011;31858;46.008;8.978;2023-11-18T11:42:19;0.15;;;0.15;;
45940;SDS011;31858;46.008;8.978;2023-11-18T11:52:23;1.08;;;0.50;;
45940;SDS011;31858;46.008;8.978;2023-11-18T12:02:29;0.40;;;0.40;;
45940;SDS011;31858;46.008;8.978;2023-11-18T12:12:33;0.22;;;0.22;;
45940;SDS011;31858;46.008;8.978;2023-11-18T12:33:06;0.20;;;0.20;;
45940;SDS011;31858;46.008;8.978;2023-11-18T12:43:10;0.43;;;0.40;;
45940;SDS011;31858;46.008;8.978;2023-11-18T12:53:19;0.55;;;0.40;;
45940;SDS011;31858;46.008;8.978;2023-11-18T13:03:21;0.30;;;0.30;;
45940;SDS011;31858;46.008;8.978;2023-11-18T13:13:24;0.50;;;0.50;;
45940;SDS011;31858;46.008;8.978;2023-11-18T13:23:27;0.32;;;0.32;;
45940;SDS011;31858;46.008;8.978;2023-11-18T13:33:31;0.70;;;0.70;;
45940;SDS011;31858;46.008;8.978;2023-11-18T13:43:42;0.82;;;0.60;;
45940;SDS011;31858;46.008;8.978;2023-11-18T13:53:45;0.60;;;0.57;;
45940;SDS011;31858;46.008;8.978;2023-11-18T14:03:48;0.57;;;0.50;;
45940;SDS011;31858;46.008;8.978;2023-11-18T14:13:51;0.40;;;0.40;;
45940;SDS011;31858;46.008;8.978;2023-11-18T14:23:53;0.85;;;0.40;;
45940;SDS011;31858;46.008;8.978;2023-11-18T14:34:01;3.97;;;1.00;;
45940;SDS011;31858;46.008;8.978;2023-11-18T14:44:04;3.33;;;1.10;;
45940;SDS011;31858;46.008;8.978;2023-11-18T14:54:07;1.15;;;1.02;;
45940;SDS011;31858;46.008;8.978;2023-11-18T15:04:08;0.52;;;0.52;;
45940;SDS011;31858;46.008;8.978;2023-11-18T15:14:12;0.68;;;0.60;;
45940;SDS011;31858;46.008;8.978;2023-11-18T15:24:15;1.15;;;1.05;;
45940;SDS011;31858;46.008;8.978;2023-11-18T15:34:18;0.90;;;0.90;;
45940;SDS011;31858;46.008;8.978;2023-11-18T15:44:21;0.88;;;0.85;;
45940;SDS011;31858;46.008;8.978;2023-11-18T15:54:25;1.15;;;1.05;;
45940;SDS011;31858;46.008;8.978;2023-11-18T16:04:27;2.95;;;0.80;;
45940;SDS011;31858;46.008;8.978;2023-11-18T16:14:30;2.08;;;0.65;;
45940;SDS011;31858;46.008;8.978;2023-11-18T16:24:32;1.38;;;1.00;;
45940;SDS011;31858;46.008;8.978;2023-11-18T16:34:35;0.98;;;0.80;;
45940;SDS011;31858;46.008;8.978;2023-11-18T16:44:37;0.80;;;0.80;;
45940;SDS011;31858;46.008;8.978;2023-11-18T16:54:40;0.80;;;0.68;;
45940;SDS011;31858;46.008;8.978;2023-11-18T17:04:42;1.35;;;0.88;;
45940;SDS011;31858;46.008;8.978;2023-11-18T17:14:45;1.00;;;0.80;;
45940;SDS011;31858;46.008;8.978;2023-11-18T17:24:49;1.23;;;1.13;;
45940;SDS011;31858;46.008;8.978;2023-11-18T17:34:52;1.23;;;1.00;;
45940;SDS011;31858;46.008;8.978;2023-11-18T17:44:53;1.02;;;0.85;;
45940;SDS011;31858;46.008;8.978;2023-11-18T17:54:56;1.20;;;1.10;;
45940;SDS011;31858;46.008;8.978;2023-11-18T18:04:58;0.93;;;0.88;;
45940;SDS011;31858;46.008;8.978;2023-11-18T18:15:01;1.20;;;1.10;;
45940;SDS011;31858;46.008;8.978;2023-11-18T18:25:04;1.70;;;1.30;;
45940;SDS011;31858;46.008;8.978;2023-11-18T18:35:08;1.30;;;0.88;;
45940;SDS011;31858;46.008;8.978;2023-11-18T18:45:10;1.38;;;1.05;;
45940;SDS011;31858;46.008;8.978;2023-11-18T18:55:15;1.00;;;1.00;;
45940;SDS011;31858;46.008;8.978;2023-11-18T19:05:17;2.55;;;1.40;;
45940;SDS011;31858;46.008;8.978;2023-11-18T19:15:24;0.98;;;0.95;;
45940;SDS011;31858;46.008;8.978;2023-11-18T19:25:26;1.95;;;1.30;;
45940;SDS011;31858;46.008;8.978;2023-11-18T19:35:29;1.05;;;0.95;;
45940;SDS011;31858;46.008;8.978;2023-11-18T19:45:31;1.35;;;1.05;;
45940;SDS011;31858;46.008;8.978;2023-11-18T19:55:34;2.47;;;1.30;;
45940;SDS011;31858;46.008;8.978;2023-11-18T20:05:36;1.67;;;1.23;;
45940;SDS011;31858;46.008;8.978;2023-11-18T20:15:39;1.90;;;1.33;;
45940;SDS011;31858;46.008;8.978;2023-11-18T20:25:41;1.27;;;0.90;;
45940;SDS011;31858;46.008;8.978;2023-11-18T20:35:45;1.10;;;1.00;;
45940;SDS011;31858;46.008;8.978;2023-11-18T20:45:46;1.40;;;1.30;;
45940;SDS011;31858;46.008;8.978;2023-11-18T20:55:49;1.70;;;0.95;;
45940;SDS011;31858;46.008;8.978;2023-11-18T21:05:51;1.50;;;1.30;;
45940;SDS011;31858;46.008;8.978;2023-11-18T21:15:55;1.23;;;1.10;;
45940;SDS011;31858;46.008;8.978;2023-11-18T21:25:56;1.17;;;1.05;;
45940;SDS011;31858;46.008;8.978;2023-11-18T21:35:59;2.25;;;1.30;;
45940;SDS011;31858;46.008;8.978;2023-11-18T21:46:01;0.85;;;0.82;;
45940;SDS011;31858;46.008;8.978;2023-11-18T21:56:04;1.60;;;1.10;;
45940;SDS011;31858;46.008;8.978;2023-11-18T22:06:06;1.60;;;0.73;;
45940;SDS011;31858;46.008;8.978;2023-11-18T22:16:09;1.08;;;0.90;;
45940;SDS011;31858;46.008;8.978;2023-11-18T22:26:12;0.98;;;0.85;;
45940;SDS011;31858;46.008;8.978;2023-11-18T22:36:15;0.70;;;0.70;;
45940;SDS011;31858;46.008;8.978;2023-11-18T22:46:17;1.27;;;0.90;;
45940;SDS011;31858;46.008;8.978;2023-11-18T22:56:19;0.57;;;0.55;;
45940;SDS011;31858;46.008;8.978;2023-11-18T23:06:25;1.30;;;1.02;;
45940;SDS011;31858;46.008;8.978;2023-11-18T23:16:28;1.10;;;0.82;;
45940;SDS011;31858;46.008;8.978;2023-11-18T23:26:29;0.65;;;0.65;;
45940;SDS011;31858;46.008;8.978;2023-11-18T23:36:32;1.45;;;1.20;;
45940;SDS011;31858;46.008;8.978;2023-11-18T23:46:34;2.63;;;2.03;;
45940;SDS011;31858;46.008;8.978;2023-11-18T23:56:37;0.77;;;0.77;;
